createdAt,value
2022-07-25T00:01:20.470Z,102015.75
2022-07-25T00:03:48.961Z,102013.19
2022-07-25T00:06:17.680Z,102014.22
2022-07-25T00:08:46.076Z,102015.25
2022-07-25T00:11:14.154Z,102007.63
2022-07-25T00:13:42.303Z,102011.19
2022-07-25T00:16:10.403Z,101996.28
2022-07-25T00:18:39.828Z,101995.38
2022-07-25T00:21:07.893Z,101988.22
2022-07-25T00:23:35.893Z,101988.13
2022-07-25T00:26:03.940Z,101990.94
2022-07-25T00:28:31.939Z,101979.38
2022-07-25T00:30:59.966Z,101982.13
2022-07-25T00:33:28.042Z,101981.25
2022-07-25T00:35:57.472Z,101977.66
2022-07-25T00:38:25.552Z,101983.91
2022-07-25T00:40:54.664Z,101986.53
2022-07-25T00:43:23.762Z,101997.81
2022-07-25T00:45:51.802Z,102002.34
2022-07-25T00:48:19.793Z,102011.28
2022-07-25T00:50:48.035Z,102010.63
2022-07-25T00:53:17.620Z,102001.13
2022-07-25T00:55:46.282Z,101997.69
2022-07-25T00:58:14.579Z,101988.91
2022-07-25T01:00:43.279Z,101981.00
2022-07-25T01:03:11.410Z,101981.94
2022-07-25T01:05:40.676Z,101978.38
2022-07-25T01:08:10.172Z,101978.38
2022-07-25T01:10:40.001Z,101979.13
2022-07-25T01:13:08.032Z,101983.47
2022-07-25T01:15:36.225Z,102002.00
2022-07-25T01:18:07.553Z,101991.56
2022-07-25T01:20:36.934Z,102003.78
2022-07-25T01:23:05.031Z,102010.19
2022-07-25T01:25:33.022Z,102004.06
2022-07-25T01:28:01.038Z,102010.19
2022-07-25T01:30:29.077Z,102020.72
2022-07-25T01:32:57.121Z,102020.56
2022-07-25T01:35:25.198Z,102055.16
2022-07-25T01:37:54.603Z,102046.88
2022-07-25T01:40:22.739Z,102015.09
2022-07-25T01:42:50.804Z,101983.94
2022-07-25T01:45:18.803Z,101922.84
2022-07-25T01:47:46.840Z,101839.94
2022-07-25T01:50:14.879Z,101747.00
2022-07-25T01:52:44.262Z,101656.03
2022-07-25T01:55:14.144Z,101563.19
2022-07-25T01:57:49.453Z,101457.44
2022-07-25T02:00:18.481Z,101387.66
2022-07-25T02:02:46.974Z,101331.00
2022-07-25T02:05:16.406Z,101266.81
2022-07-25T02:07:44.536Z,101210.84
2022-07-25T02:10:13.999Z,101186.34
2022-07-25T02:12:42.095Z,101139.63
2022-07-25T02:15:10.897Z,101097.34
2022-07-25T02:17:40.203Z,101076.59
2022-07-25T02:20:09.095Z,101072.50
2022-07-25T02:22:37.118Z,101099.13
2022-07-25T02:25:05.759Z,101105.31
2022-07-25T02:27:35.211Z,101134.13
2022-07-25T02:30:03.288Z,101169.09
2022-07-25T02:32:31.280Z,101225.06
2022-07-25T02:34:59.529Z,101269.47
2022-07-25T02:37:27.575Z,101313.06
2022-07-25T02:39:55.659Z,101346.09
2022-07-25T02:42:23.741Z,101400.41
2022-07-25T02:44:53.176Z,101433.69
2022-07-25T02:47:21.228Z,101489.69
2022-07-25T02:49:49.226Z,101517.66
2022-07-25T02:52:17.268Z,101549.91
2022-07-25T02:54:45.259Z,101583.09
2022-07-25T02:57:13.275Z,101628.84
2022-07-25T02:59:41.330Z,101663.16
2022-07-25T03:02:10.750Z,101685.91
2022-07-25T03:04:38.848Z,101700.88
2022-07-25T03:07:06.957Z,101722.00
2022-07-25T03:09:34.973Z,101741.72
2022-07-25T03:12:03.191Z,101768.84
2022-07-25T03:14:31.317Z,101778.44
2022-07-25T03:16:59.643Z,101800.19
2022-07-25T03:19:29.132Z,101820.28
2022-07-25T03:21:57.175Z,101831.34
2022-07-25T03:24:25.236Z,101850.84
2022-07-25T03:26:53.198Z,101843.19
2022-07-25T03:29:21.228Z,101822.41
2022-07-25T03:31:49.337Z,101777.97
2022-07-25T03:34:17.376Z,101716.91
2022-07-25T03:36:46.823Z,101671.00
2022-07-25T03:39:15.555Z,101638.84
2022-07-25T03:41:43.697Z,101614.38
2022-07-25T03:44:11.756Z,101582.06
2022-07-25T03:46:40.009Z,101549.44
2022-07-25T03:49:08.109Z,101516.03
2022-07-25T03:51:36.223Z,101475.69
2022-07-25T03:54:07.408Z,101440.41
2022-07-25T03:56:43.665Z,101404.38
2022-07-25T03:59:13.848Z,101380.66
2022-07-25T04:01:42.393Z,101347.34
2022-07-25T04:04:10.966Z,101305.84
2022-07-25T04:06:39.322Z,101282.00
2022-07-25T04:09:10.429Z,101251.88
2022-07-25T04:11:38.511Z,101220.97
2022-07-25T04:14:07.567Z,101198.81
2022-07-25T04:16:36.927Z,101179.38
2022-07-25T04:19:06.262Z,101154.88
2022-07-25T04:21:36.030Z,101124.06
2022-07-25T04:24:04.462Z,101088.88
2022-07-25T04:26:34.138Z,101073.72
2022-07-25T04:29:03.602Z,101059.53
2022-07-25T04:31:31.999Z,101064.78
2022-07-25T04:34:00.178Z,101060.16
2022-07-25T04:36:28.658Z,101052.16
2022-07-25T04:38:56.701Z,101068.06
2022-07-25T04:41:24.731Z,101075.22
2022-07-25T04:43:54.218Z,101090.13
2022-07-25T04:46:23.235Z,101112.75
2022-07-25T04:48:51.884Z,101136.53
2022-07-25T04:51:20.508Z,101165.34
2022-07-25T04:53:48.553Z,101204.56
2022-07-25T04:56:16.629Z,101244.75
2022-07-25T04:58:44.760Z,101288.31
2022-07-25T05:01:14.275Z,101314.44
2022-07-25T05:03:50.337Z,101343.91
2022-07-25T05:06:18.959Z,101381.59
2022-07-25T05:08:47.608Z,101415.84
2022-07-25T05:11:15.806Z,101458.78
2022-07-25T05:13:43.832Z,101492.97
2022-07-25T05:16:13.326Z,101531.50
2022-07-25T05:18:41.414Z,101570.56
2022-07-25T05:21:11.725Z,101594.16
2022-07-25T05:23:39.756Z,101620.28
2022-07-25T05:26:07.925Z,101634.19
2022-07-25T05:28:36.000Z,101648.09
2022-07-25T05:31:04.145Z,101651.28
2022-07-25T05:33:34.777Z,101654.88
2022-07-25T05:36:03.407Z,101648.31
2022-07-25T05:38:31.422Z,101656.03
2022-07-25T05:40:59.476Z,101668.00
2022-07-25T05:43:27.737Z,101658.47
2022-07-25T05:46:01.746Z,101656.78
2022-07-25T05:48:29.862Z,101652.66
2022-07-25T05:51:00.199Z,101655.34
2022-07-25T05:53:28.207Z,101647.56
2022-07-25T05:55:56.296Z,101630.91
2022-07-25T05:58:29.420Z,101622.91
2022-07-25T06:00:58.297Z,101610.44
2022-07-25T06:03:26.388Z,101603.22
2022-07-25T06:05:56.789Z,101585.38
2022-07-25T06:08:28.658Z,101574.75
2022-07-25T06:10:57.518Z,101570.16
2022-07-25T06:13:25.849Z,101563.78
2022-07-25T06:15:56.205Z,101564.34
2022-07-25T06:18:24.300Z,101564.03
2022-07-25T06:20:52.405Z,101569.66
2022-07-25T06:23:23.335Z,101578.91
2022-07-25T06:25:57.083Z,101586.31
2022-07-25T06:28:25.095Z,101585.09
2022-07-25T06:30:53.305Z,101603.97
2022-07-25T06:33:21.733Z,101632.75
2022-07-25T06:35:49.766Z,101660.97
2022-07-25T06:38:17.805Z,101700.56
2022-07-25T06:40:45.819Z,101726.94
2022-07-25T06:43:15.215Z,101740.53
2022-07-25T06:45:47.537Z,101737.84
2022-07-25T06:48:15.769Z,101726.31
2022-07-25T06:50:43.972Z,101714.63
2022-07-25T06:53:12.167Z,101700.03
2022-07-25T06:55:40.353Z,101683.50
2022-07-25T06:58:08.485Z,101657.13
2022-07-25T07:00:38.015Z,101637.75
2022-07-25T07:03:06.355Z,101616.34
2022-07-25T07:05:37.495Z,101589.50
2022-07-25T07:08:06.209Z,101559.91
2022-07-25T07:10:34.606Z,101546.28
2022-07-25T07:13:08.085Z,101532.81
2022-07-25T07:15:38.067Z,101520.31
2022-07-25T07:18:06.905Z,101517.19
2022-07-25T07:20:35.018Z,101504.59
2022-07-25T07:23:03.212Z,101484.91
2022-07-25T07:25:31.463Z,101468.72
2022-07-25T07:27:59.449Z,101454.25
2022-07-25T07:30:58.669Z,101437.28
2022-07-25T07:33:17.342Z,101437.81
2022-07-25T07:35:46.023Z,101453.97
2022-07-25T07:38:14.319Z,101482.44
2022-07-25T07:40:42.355Z,101515.44
2022-07-25T07:43:11.027Z,101552.91
2022-07-25T07:45:39.112Z,101599.38
2022-07-25T07:48:08.443Z,101643.25
2022-07-25T07:50:38.126Z,101686.28
2022-07-25T07:53:06.862Z,101740.38
2022-07-25T07:55:48.151Z,101776.16
2022-07-25T07:58:18.072Z,101820.44
2022-07-25T08:00:47.394Z,101862.13
2022-07-25T08:03:18.953Z,101898.03
2022-07-25T08:05:51.875Z,101945.31
2022-07-25T08:08:20.326Z,101973.19
2022-07-25T08:10:50.187Z,101994.66
2022-07-25T08:13:20.589Z,102010.31
2022-07-25T08:15:50.962Z,102026.91
2022-07-25T08:18:20.184Z,102041.22
2022-07-25T08:20:50.528Z,102050.34
2022-07-25T08:23:19.709Z,102071.53
2022-07-25T08:25:48.085Z,102080.38
2022-07-25T08:28:16.434Z,102102.06
2022-07-25T08:30:45.000Z,102114.38
2022-07-25T08:33:16.168Z,102111.84
2022-07-25T08:35:49.940Z,102108.47
2022-07-25T08:38:18.265Z,102120.88
2022-07-25T08:40:46.512Z,102131.25
2022-07-25T08:43:15.372Z,102136.56
2022-07-25T08:45:46.987Z,102152.97
2022-07-25T08:48:15.511Z,102172.81
2022-07-25T08:50:44.127Z,102175.00
2022-07-25T08:53:32.656Z,102172.53
2022-07-25T08:56:05.392Z,102179.88
2022-07-25T08:58:38.159Z,102179.53
2022-07-25T09:01:07.183Z,102207.28
2022-07-25T09:03:36.430Z,102217.06
2022-07-25T09:06:15.917Z,102235.03
2022-07-25T09:08:54.427Z,102241.34
2022-07-25T09:11:33.528Z,102244.94
2022-07-25T09:14:05.181Z,102254.47
2022-07-25T09:16:35.926Z,102269.19
2022-07-25T09:19:10.675Z,102283.59
2022-07-25T09:21:39.889Z,102286.63
2022-07-25T09:24:16.010Z,102290.00
2022-07-25T09:26:49.646Z,102284.09
2022-07-25T09:29:19.856Z,102286.38
2022-07-25T09:31:48.048Z,102277.69
2022-07-25T09:34:22.904Z,102288.72
2022-07-25T09:36:54.648Z,102302.34
2022-07-25T09:39:34.908Z,102300.94
2022-07-25T09:42:03.323Z,102307.38
2022-07-25T09:44:31.335Z,102322.69
2022-07-25T09:46:59.943Z,102336.50
2022-07-25T09:49:38.276Z,102332.59
2022-07-25T09:52:07.584Z,102351.44
2022-07-25T09:54:37.411Z,102355.75
2022-07-25T09:57:05.695Z,102393.38
2022-07-25T09:59:35.074Z,102413.31
2022-07-25T10:02:09.782Z,102425.47
2022-07-25T10:04:46.114Z,102430.59
2022-07-25T10:07:17.288Z,102444.56
2022-07-25T10:09:48.728Z,102450.47
2022-07-25T10:12:21.602Z,102458.69
2022-07-25T10:15:07.503Z,102465.34
2022-07-25T10:17:36.559Z,102472.81
2022-07-25T10:20:06.630Z,102498.59
2022-07-25T10:22:55.957Z,102514.91
2022-07-25T10:25:26.457Z,102545.03
2022-07-25T10:28:01.269Z,102555.84
2022-07-25T10:30:35.503Z,102549.56
2022-07-25T10:33:05.139Z,102557.94
2022-07-25T10:35:34.047Z,102491.97
2022-07-25T10:38:05.516Z,102425.97
2022-07-25T10:40:38.163Z,102350.19
2022-07-25T10:43:10.952Z,102284.28
2022-07-25T10:45:41.094Z,102265.03
2022-07-25T10:48:10.947Z,102275.22
2022-07-25T10:50:56.175Z,102314.28
2022-07-25T10:53:35.834Z,102363.63
2022-07-25T10:56:10.725Z,102418.75
2022-07-25T10:58:47.876Z,102462.19
2022-07-25T11:01:16.695Z,102507.97
2022-07-25T11:03:45.754Z,102544.47
2022-07-25T11:06:15.255Z,102548.78
2022-07-25T11:08:44.510Z,102567.88
2022-07-25T11:11:14.181Z,102585.00
2022-07-25T11:13:43.215Z,102605.59
2022-07-25T11:16:11.549Z,102605.50
2022-07-25T11:18:41.535Z,102612.69
2022-07-25T11:21:10.364Z,102607.41
2022-07-25T11:23:38.351Z,102623.97
2022-07-25T11:26:10.772Z,102614.47
2022-07-25T11:28:41.902Z,102608.88
2022-07-25T11:31:10.874Z,102613.72
2022-07-25T11:33:39.498Z,102615.91
2022-07-25T11:36:09.226Z,102610.91
2022-07-25T11:38:37.987Z,102613.94
2022-07-25T11:41:06.247Z,102597.53
2022-07-25T11:43:34.728Z,102585.91
2022-07-25T11:46:07.215Z,102584.88
2022-07-25T11:48:44.526Z,102568.59
2022-07-25T11:51:18.695Z,102566.69
2022-07-25T11:53:49.679Z,102565.66
2022-07-25T11:56:41.311Z,102570.50
2022-07-25T11:59:08.947Z,102552.03
2022-07-25T12:01:40.548Z,102557.44
2022-07-25T12:04:12.867Z,102548.53
2022-07-25T12:06:41.157Z,102570.09
2022-07-25T12:09:18.486Z,102573.31
2022-07-25T12:11:48.338Z,102580.25
2022-07-25T12:14:16.605Z,102552.09
2022-07-25T12:16:46.071Z,102546.53
2022-07-25T12:19:21.531Z,102526.34
2022-07-25T12:21:49.602Z,102538.34
2022-07-25T12:24:17.573Z,102537.34
2022-07-25T12:26:45.560Z,102542.66
2022-07-25T12:29:13.565Z,102541.81
2022-07-25T12:31:41.576Z,102541.38
2022-07-25T12:34:10.934Z,102555.72
2022-07-25T12:36:44.085Z,102548.34
2022-07-25T12:39:12.466Z,102527.53
2022-07-25T12:41:42.835Z,102520.34
2022-07-25T12:44:11.353Z,102526.97
2022-07-25T12:46:45.811Z,102509.16
2022-07-25T12:49:18.945Z,102511.91
2022-07-25T12:51:46.927Z,102495.69
2022-07-25T12:54:21.745Z,102480.03
2022-07-25T12:56:50.220Z,102470.09
2022-07-25T12:59:18.281Z,102435.75
2022-07-25T13:01:46.397Z,102435.78
2022-07-25T13:04:14.438Z,102422.03
2022-07-25T13:06:43.813Z,102396.81
2022-07-25T13:09:11.926Z,102390.66
2022-07-25T13:11:40.017Z,102393.25
2022-07-25T13:14:07.992Z,102392.78
2022-07-25T13:16:37.853Z,102390.75
2022-07-25T13:19:06.319Z,102387.28
2022-07-25T13:21:34.590Z,102390.88
2022-07-25T13:24:04.224Z,102421.13
2022-07-25T13:26:33.031Z,102432.31
2022-07-25T13:29:01.162Z,102416.72
2022-07-25T13:31:29.759Z,102418.53
2022-07-25T13:33:58.347Z,102393.97
2022-07-25T13:36:27.368Z,102381.34
2022-07-25T13:38:55.517Z,102362.00
2022-07-25T13:41:24.997Z,102365.44
2022-07-25T13:43:53.301Z,102366.03
2022-07-25T13:46:21.442Z,102371.78
2022-07-25T13:48:49.904Z,102382.28
2022-07-25T13:51:17.907Z,102389.75
2022-07-25T13:53:45.963Z,102380.16
2022-07-25T13:56:14.293Z,102361.50
2022-07-25T13:58:43.909Z,102382.00
2022-07-25T14:01:16.256Z,102396.31
2022-07-25T14:03:44.301Z,102379.25
2022-07-25T14:06:12.660Z,102369.25
2022-07-25T14:08:41.299Z,102364.81
2022-07-25T14:11:09.461Z,102386.53
2022-07-25T14:13:38.060Z,102389.84
2022-07-25T14:16:08.026Z,102390.69
2022-07-25T14:18:36.140Z,102376.25
2022-07-25T14:21:04.355Z,102368.50
2022-07-25T14:23:32.323Z,102369.75
2022-07-25T14:26:00.401Z,102369.47
2022-07-25T14:28:28.431Z,102354.13
2022-07-25T14:30:56.692Z,102360.16
2022-07-25T14:33:26.076Z,102352.41
2022-07-25T14:35:54.067Z,102338.53
2022-07-25T14:38:22.123Z,102352.03
2022-07-25T14:40:50.239Z,102375.50
2022-07-25T14:43:18.238Z,102382.53
2022-07-25T14:45:46.276Z,102385.53
2022-07-25T14:48:14.387Z,102375.72
2022-07-25T14:50:43.861Z,102375.41
2022-07-25T14:53:12.790Z,102374.00
2022-07-25T14:55:40.968Z,102355.31
2022-07-25T14:58:08.988Z,102353.41
2022-07-25T15:00:41.710Z,102357.06
2022-07-25T15:03:09.790Z,102370.00
2022-07-25T15:05:38.440Z,102337.91
2022-07-25T15:08:08.405Z,102327.63
2022-07-25T15:10:36.467Z,102327.50
2022-07-25T15:13:29.484Z,102330.06
2022-07-25T15:15:52.542Z,102335.69
2022-07-25T15:18:20.763Z,102337.03
2022-07-25T15:20:48.768Z,102290.78
2022-07-25T15:23:18.185Z,102293.44
2022-07-25T15:26:04.181Z,102288.19
2022-07-25T15:28:33.710Z,102302.47
2022-07-25T15:31:02.188Z,102276.91
2022-07-25T15:33:30.446Z,102265.72
2022-07-25T15:35:58.547Z,102277.66
2022-07-25T15:38:28.976Z,102280.88
2022-07-25T15:40:57.212Z,102284.56
2022-07-25T15:43:25.556Z,102286.88
2022-07-25T15:45:54.168Z,102299.56
2022-07-25T15:48:23.643Z,102315.09
2022-07-25T15:50:52.579Z,102319.31
2022-07-25T15:53:20.793Z,102337.13
2022-07-25T15:55:50.276Z,102324.84
2022-07-25T15:58:18.584Z,102345.72
2022-07-25T16:00:46.791Z,102344.41
2022-07-25T16:03:14.999Z,102363.94
2022-07-25T16:05:45.112Z,102358.41
2022-07-25T16:08:13.091Z,102359.72
2022-07-25T16:10:41.697Z,102358.00
2022-07-25T16:13:11.061Z,102359.91
2022-07-25T16:15:39.806Z,102367.31
2022-07-25T16:18:07.901Z,102374.09
2022-07-25T16:20:35.871Z,102357.56
2022-07-25T16:23:03.844Z,102346.94
2022-07-25T16:25:32.001Z,102350.66
2022-07-25T16:28:00.829Z,102366.59
2022-07-25T16:30:30.860Z,102379.44
2022-07-25T16:32:58.969Z,102386.03
2022-07-25T16:35:27.082Z,102394.63
2022-07-25T16:37:55.063Z,102393.75
2022-07-25T16:40:28.686Z,102384.66
2022-07-25T16:42:59.646Z,102355.00
2022-07-25T16:45:28.665Z,102327.16
2022-07-25T16:47:58.600Z,102300.25
2022-07-25T16:50:26.538Z,102215.44
2022-07-25T16:52:54.931Z,102098.66
2022-07-25T16:55:22.996Z,102033.09
2022-07-25T16:57:51.137Z,102020.03
2022-07-25T17:00:20.202Z,102029.13
2022-07-25T17:02:48.323Z,102025.28
2022-07-25T17:05:18.458Z,102035.78
2022-07-25T17:07:47.403Z,102040.81
2022-07-25T17:10:15.424Z,102038.34
2022-07-25T17:12:43.572Z,102053.13
2022-07-25T17:15:12.604Z,102074.75
2022-07-25T17:17:40.786Z,102109.06
2022-07-25T17:20:10.195Z,102155.38
2022-07-25T17:22:39.645Z,102194.69
2022-07-25T17:25:08.712Z,102250.63
2022-07-25T17:27:37.279Z,102362.06
2022-07-25T17:30:06.433Z,102450.91
2022-07-25T17:32:34.842Z,102485.69
2022-07-25T17:35:02.924Z,102508.56
2022-07-25T17:37:31.089Z,102529.38
2022-07-25T17:40:01.510Z,102532.41
2022-07-25T17:42:29.691Z,102530.34
2022-07-25T17:44:57.832Z,102516.41
2022-07-25T17:47:26.129Z,102532.22
2022-07-25T17:49:54.266Z,102530.16
2022-07-25T17:52:22.262Z,102537.16
2022-07-25T17:54:50.266Z,102546.41
2022-07-25T17:57:19.806Z,102560.38
2022-07-25T17:59:47.817Z,102579.25
2022-07-25T18:02:16.108Z,102573.63
2022-07-25T18:04:44.847Z,102586.81
2022-07-25T18:07:12.893Z,102595.50
2022-07-25T18:09:41.327Z,102596.25
2022-07-25T18:12:09.503Z,102593.72
2022-07-25T18:14:38.918Z,102593.78
2022-07-25T18:17:07.541Z,102600.78
2022-07-25T18:19:35.620Z,102602.84
2022-07-25T18:22:04.170Z,102602.00
2022-07-25T18:24:32.267Z,102610.38
2022-07-25T18:27:00.904Z,102617.56
2022-07-25T18:29:28.949Z,102630.50
2022-07-25T18:31:58.563Z,102621.66
2022-07-25T18:34:26.613Z,102622.47
2022-07-25T18:36:54.697Z,102620.63
2022-07-25T18:39:22.693Z,102625.13
2022-07-25T18:41:51.161Z,102634.94
2022-07-25T18:44:19.977Z,102644.78
2022-07-25T18:46:48.642Z,102639.75
2022-07-25T18:49:18.296Z,102645.28
2022-07-25T18:51:46.440Z,102653.38
2022-07-25T18:54:14.527Z,102670.56
2022-07-25T18:56:43.765Z,102674.44
2022-07-25T18:59:11.970Z,102681.97
2022-07-25T19:01:40.129Z,102704.19
2022-07-25T19:04:08.506Z,102705.28
2022-07-25T19:06:38.325Z,102731.13
2022-07-25T19:09:06.397Z,102745.53
2022-07-25T19:11:37.716Z,102751.06
2022-07-25T19:14:10.326Z,102766.22
2022-07-25T19:16:39.694Z,102773.63
2022-07-25T19:19:09.599Z,102786.84
2022-07-25T19:21:39.197Z,102795.69
2022-07-25T19:24:08.248Z,102811.50
2022-07-25T19:26:36.442Z,102811.41
2022-07-25T19:29:06.999Z,102820.19
2022-07-25T19:31:35.327Z,102818.56
2022-07-25T19:34:03.456Z,102837.97
2022-07-25T19:36:31.797Z,102846.88
2022-07-25T19:39:01.615Z,102847.84
2022-07-25T19:41:30.582Z,102846.16
2022-07-25T19:43:58.636Z,102849.66
2022-07-25T19:46:31.032Z,102856.63
2022-07-25T19:48:59.598Z,102864.56
2022-07-25T19:51:28.614Z,102872.34
2022-07-25T19:53:56.730Z,102884.53
2022-07-25T19:56:26.230Z,102886.31
2022-07-25T19:58:54.658Z,102893.47
2022-07-25T20:01:22.780Z,102893.72
2022-07-25T20:03:50.851Z,102906.22
2022-07-25T20:06:20.607Z,102915.25
2022-07-25T20:08:49.026Z,102923.31
2022-07-25T20:11:17.111Z,102926.88
2022-07-25T20:13:46.587Z,102933.31
2022-07-25T20:16:14.813Z,102939.47
2022-07-25T20:18:43.091Z,102946.63
2022-07-25T20:21:12.496Z,102951.03
2022-07-25T20:23:41.058Z,102956.38
2022-07-25T20:26:09.082Z,102967.91
2022-07-25T20:28:38.111Z,102977.75
2022-07-25T20:31:08.024Z,102968.03
2022-07-25T20:33:36.478Z,102990.91
2022-07-25T20:36:05.390Z,102988.31
2022-07-25T20:38:33.441Z,102992.69
2022-07-25T20:41:01.821Z,102996.19
2022-07-25T20:43:31.000Z,102990.81
2022-07-25T20:45:59.214Z,102996.97
2022-07-25T20:48:28.703Z,102999.59
2022-07-25T20:50:57.013Z,102991.66
2022-07-25T20:53:25.577Z,102983.75
2022-07-25T20:55:53.765Z,102979.25
2022-07-25T20:58:22.024Z,102976.59
2022-07-25T21:00:50.156Z,102978.31
2022-07-25T21:03:18.608Z,102982.75
2022-07-25T21:05:48.501Z,102980.97
2022-07-25T21:08:16.515Z,102967.81
2022-07-25T21:10:44.628Z,102966.94
2022-07-25T21:13:12.683Z,102974.88
2022-07-25T21:15:44.255Z,102974.88
2022-07-25T21:18:12.364Z,102974.88
2022-07-25T21:20:40.336Z,102974.88
2022-07-25T21:23:11.166Z,102971.47
2022-07-25T21:25:39.256Z,102961.91
2022-07-25T21:28:07.382Z,102964.53
2022-07-25T21:30:36.135Z,102962.91
2022-07-25T21:33:04.237Z,102962.13
2022-07-25T21:35:51.864Z,102963.19
2022-07-25T21:38:27.441Z,102968.59
2022-07-25T21:40:56.599Z,102961.75
2022-07-25T21:43:24.745Z,102960.97
2022-07-25T21:45:52.946Z,102970.72
2022-07-25T21:48:42.922Z,102968.16
2022-07-25T21:51:18.845Z,102974.38
2022-07-25T21:53:53.737Z,102977.09
2022-07-25T21:56:22.301Z,102973.59
2022-07-25T21:58:50.523Z,102982.28
2022-07-25T22:01:20.504Z,102986.69
2022-07-25T22:03:48.684Z,102993.84
2022-07-25T22:06:16.852Z,102989.44
2022-07-25T22:08:44.937Z,102982.50
2022-07-25T22:11:38.137Z,102993.19
2022-07-25T22:14:02.857Z,102999.56
2022-07-25T22:16:30.988Z,103003.19
2022-07-25T22:18:59.738Z,103010.25
2022-07-25T22:21:28.000Z,103019.97
2022-07-25T22:23:56.026Z,103019.09
2022-07-25T22:26:25.464Z,103031.56
2022-07-25T22:28:53.558Z,103035.28
2022-07-25T22:31:21.705Z,103046.03
2022-07-25T22:33:49.778Z,103044.47
2022-07-25T22:36:17.822Z,103060.44
2022-07-25T22:38:45.907Z,103066.78
2022-07-25T22:41:14.109Z,103065.13
2022-07-25T22:43:52.451Z,103081.81
2022-07-25T22:46:27.646Z,103084.41
2022-07-25T22:48:55.836Z,103089.69
2022-07-25T22:51:23.954Z,103072.91
2022-07-25T22:53:52.198Z,103060.53
2022-07-25T22:56:20.623Z,103041.19
2022-07-25T22:58:50.119Z,103029.75
2022-07-25T23:01:18.292Z,103018.22
2022-07-25T23:03:46.957Z,103015.53
2022-07-25T23:06:14.997Z,103025.91
2022-07-25T23:08:43.128Z,103016.16
2022-07-25T23:11:11.159Z,103006.53
2022-07-25T23:13:39.184Z,103004.78
2022-07-25T23:16:10.366Z,103006.75
2022-07-25T23:18:38.746Z,103012.94
2022-07-25T23:21:07.511Z,103000.72
2022-07-25T23:23:35.587Z,102997.22
2022-07-25T23:26:03.756Z,102997.22
2022-07-25T23:28:31.827Z,102984.97
2022-07-25T23:30:59.852Z,102974.47
2022-07-25T23:33:31.090Z,102963.06
2022-07-25T23:35:59.172Z,102967.69
2022-07-25T23:38:27.183Z,102954.63
2022-07-25T23:40:55.195Z,102944.16
2022-07-25T23:43:48.292Z,102928.38
2022-07-25T23:46:11.585Z,102924.81
2022-07-25T23:48:41.264Z,102930.09
2022-07-25T23:51:09.362Z,102924.81
2022-07-25T23:53:37.401Z,102920.47
2022-07-25T23:56:05.982Z,102920.47
2022-07-25T23:58:33.978Z,102927.47
